createdAt,value
2022-08-02T00:01:25.956Z,5.13
2022-08-02T00:03:29.652Z,4.90
2022-08-02T00:05:34.439Z,5.10
2022-08-02T00:07:41.167Z,3.70
2022-08-02T00:09:45.486Z,2.90
2022-08-02T00:11:49.147Z,4.17
2022-08-02T00:13:52.815Z,3.43
2022-08-02T00:15:56.356Z,3.60
2022-08-02T00:18:01.366Z,3.60
2022-08-02T00:20:05.931Z,3.23
2022-08-02T00:22:10.009Z,2.67
2022-08-02T00:24:29.357Z,3.40
2022-08-02T00:26:34.220Z,2.63
2022-08-02T00:28:38.273Z,4.40
2022-08-02T00:30:41.870Z,3.53
2022-08-02T00:32:46.212Z,3.50
2022-08-02T00:34:51.663Z,4.40
2022-08-02T00:36:55.425Z,2.50
2022-08-02T00:38:59.027Z,4.90
2022-08-02T00:41:02.584Z,3.30
2022-08-02T00:43:08.061Z,3.83
2022-08-02T00:45:11.803Z,3.10
2022-08-02T00:47:19.276Z,3.90
2022-08-02T00:49:23.525Z,3.83
2022-08-02T00:51:29.453Z,3.77
2022-08-02T00:53:33.379Z,5.73
2022-08-02T00:55:38.005Z,3.80
2022-08-02T00:57:41.418Z,4.40
2022-08-02T00:59:44.896Z,4.20
2022-08-02T01:01:56.261Z,4.33
2022-08-02T01:04:01.487Z,4.27
2022-08-02T01:06:13.094Z,4.80
2022-08-02T01:08:17.952Z,3.83
2022-08-02T01:10:21.393Z,3.80
2022-08-02T01:12:24.966Z,7.00
2022-08-02T01:14:28.518Z,5.10
2022-08-02T01:16:34.793Z,5.57
2022-08-02T01:18:42.879Z,4.80
2022-08-02T01:21:07.227Z,4.63
2022-08-02T01:23:32.535Z,4.37
2022-08-02T01:25:54.787Z,4.30
2022-08-02T01:28:37.195Z,4.43
2022-08-02T01:30:47.482Z,3.70
2022-08-02T01:32:56.473Z,3.50
2022-08-02T01:35:03.812Z,4.10
2022-08-02T01:37:11.649Z,5.47
2022-08-02T01:39:27.617Z,3.77
2022-08-02T01:41:36.975Z,4.03
2022-08-02T01:43:44.755Z,4.07
2022-08-02T01:45:49.507Z,4.40
2022-08-02T01:47:54.991Z,4.70
2022-08-02T01:50:01.376Z,5.03
2022-08-02T01:52:23.190Z,4.03
2022-08-02T01:54:30.659Z,4.20
2022-08-02T01:56:35.002Z,3.97
2022-08-02T01:58:42.826Z,4.00
2022-08-02T02:00:48.027Z,4.03
2022-08-02T02:02:55.095Z,4.50
2022-08-02T02:05:00.129Z,4.30
2022-08-02T02:07:04.873Z,5.37
2022-08-02T02:09:10.012Z,4.43
2022-08-02T02:12:09.479Z,5.10
2022-08-02T02:13:42.451Z,4.47
2022-08-02T02:15:49.471Z,5.33
2022-08-02T02:18:12.513Z,5.40
2022-08-02T02:20:20.911Z,3.97
2022-08-02T02:22:24.659Z,5.40
2022-08-02T02:24:30.568Z,4.30
2022-08-02T02:26:37.085Z,4.70
2022-08-02T02:28:48.575Z,4.80
2022-08-02T02:31:00.288Z,4.23
2022-08-02T02:33:07.068Z,5.40
2022-08-02T02:35:12.470Z,4.90
2022-08-02T02:37:21.506Z,6.60
2022-08-02T02:39:27.263Z,5.50
2022-08-02T02:41:30.830Z,4.93
2022-08-02T02:43:36.214Z,4.90
2022-08-02T02:45:41.615Z,4.53
2022-08-02T02:47:49.583Z,4.97
2022-08-02T02:49:54.122Z,5.90
2022-08-02T02:51:58.843Z,4.20
2022-08-02T02:54:30.519Z,5.30
2022-08-02T02:56:27.346Z,4.93
2022-08-02T02:58:31.478Z,4.97
2022-08-02T03:00:52.548Z,4.90
2022-08-02T03:02:57.938Z,4.90
2022-08-02T03:05:04.108Z,5.50
2022-08-02T03:07:07.582Z,5.37
2022-08-02T03:09:11.678Z,6.37
2022-08-02T03:11:15.893Z,5.07
2022-08-02T03:13:19.864Z,5.67
2022-08-02T03:15:24.795Z,6.13
2022-08-02T03:17:38.802Z,5.30
2022-08-02T03:19:43.551Z,6.87
2022-08-02T03:21:48.239Z,5.60
2022-08-02T03:24:00.842Z,7.70
2022-08-02T03:26:04.499Z,7.57
2022-08-02T03:28:07.950Z,7.73
2022-08-02T03:30:13.041Z,6.00
2022-08-02T03:32:16.596Z,5.20
2022-08-02T03:34:20.472Z,6.80
2022-08-02T03:36:28.511Z,6.90
2022-08-02T03:38:33.572Z,5.70
2022-08-02T03:40:37.989Z,5.50
2022-08-02T03:42:42.103Z,6.43
2022-08-02T03:44:45.776Z,4.97
2022-08-02T03:46:49.617Z,6.73
2022-08-02T03:48:53.963Z,5.57
2022-08-02T03:50:58.011Z,5.80
2022-08-02T03:53:03.825Z,5.27
2022-08-02T03:55:07.889Z,5.07
2022-08-02T03:57:11.995Z,4.40
2022-08-02T03:59:15.896Z,5.90
2022-08-02T04:01:19.439Z,5.60
2022-08-02T04:03:23.016Z,6.03
2022-08-02T04:05:26.683Z,5.60
2022-08-02T04:08:33.000Z,6.10
2022-08-02T04:09:55.048Z,6.37
2022-08-02T04:11:57.760Z,5.50
2022-08-02T04:14:03.010Z,6.07
2022-08-02T04:16:12.562Z,7.77
2022-08-02T04:18:23.589Z,5.97
2022-08-02T04:20:32.566Z,6.20
2022-08-02T04:22:40.286Z,5.80
2022-08-02T04:24:50.550Z,7.00
2022-08-02T04:27:19.770Z,6.07
2022-08-02T04:29:21.656Z,6.00
2022-08-02T04:31:25.292Z,7.73
2022-08-02T04:33:28.887Z,7.27
2022-08-02T04:35:32.751Z,6.50
2022-08-02T04:37:38.295Z,5.70
2022-08-02T04:40:02.052Z,6.80
2022-08-02T04:42:07.924Z,7.20
2022-08-02T04:44:11.404Z,5.77
2022-08-02T04:46:15.189Z,5.50
2022-08-02T04:48:18.902Z,6.17
2022-08-02T04:50:22.312Z,6.80
2022-08-02T04:52:25.737Z,6.93
2022-08-02T04:54:29.177Z,6.50
2022-08-02T04:56:32.516Z,6.00
2022-08-02T04:58:40.338Z,6.40
2022-08-02T05:00:44.883Z,7.33
2022-08-02T05:02:48.554Z,6.23
2022-08-02T05:04:52.482Z,7.93
2022-08-02T05:06:55.969Z,5.90
2022-08-02T05:08:59.751Z,5.30
2022-08-02T05:11:03.214Z,6.97
2022-08-02T05:13:07.122Z,5.47
2022-08-02T05:15:16.523Z,5.90
2022-08-02T05:17:20.060Z,5.60
2022-08-02T05:19:23.455Z,7.00
2022-08-02T05:21:26.898Z,5.70
2022-08-02T05:23:30.332Z,7.07
2022-08-02T05:25:33.820Z,7.47
2022-08-02T05:27:37.370Z,5.90
2022-08-02T05:29:40.802Z,7.20
2022-08-02T05:31:58.354Z,6.80
2022-08-02T05:34:01.860Z,5.93
2022-08-02T05:36:05.512Z,7.10
2022-08-02T05:38:10.015Z,6.43
2022-08-02T05:40:13.929Z,8.60
2022-08-02T05:42:19.039Z,7.27
2022-08-02T05:44:22.483Z,8.57
2022-08-02T05:46:25.954Z,8.60
2022-08-02T05:48:32.252Z,7.90
2022-08-02T05:50:40.281Z,7.50
2022-08-02T05:52:51.399Z,8.10
2022-08-02T05:55:02.596Z,8.80
2022-08-02T05:57:11.084Z,8.20
2022-08-02T05:59:23.747Z,8.07
2022-08-02T06:01:34.059Z,9.33
2022-08-02T06:03:44.254Z,9.10
2022-08-02T06:05:54.643Z,11.40
2022-08-02T06:08:00.425Z,10.43
2022-08-02T06:10:05.213Z,10.47
2022-08-02T06:12:13.649Z,9.60
2022-08-02T06:14:18.903Z,9.67
2022-08-02T06:16:32.066Z,14.33
2022-08-02T06:18:38.291Z,9.43
2022-08-02T06:20:41.984Z,12.37
2022-08-02T06:22:46.508Z,7.70
2022-08-02T06:24:52.705Z,8.67
2022-08-02T06:26:57.694Z,6.90
2022-08-02T06:29:01.559Z,6.30
2022-08-02T06:31:06.731Z,8.73
2022-08-02T06:33:10.625Z,7.60
2022-08-02T06:35:15.378Z,6.80
2022-08-02T06:37:27.861Z,7.50
2022-08-02T06:39:36.190Z,7.27
2022-08-02T06:41:42.272Z,7.87
2022-08-02T06:44:19.537Z,9.30
2022-08-02T06:47:07.466Z,8.50
2022-08-02T06:48:49.579Z,9.10
2022-08-02T06:50:55.000Z,8.47
2022-08-02T06:52:58.660Z,8.43
2022-08-02T06:55:04.309Z,7.83
2022-08-02T06:57:09.580Z,7.50
2022-08-02T06:59:13.236Z,11.00
2022-08-02T07:01:17.142Z,9.07
2022-08-02T07:03:20.738Z,9.23
2022-08-02T07:05:24.388Z,7.40
2022-08-02T07:07:29.471Z,7.60
2022-08-02T07:09:32.965Z,8.30
2022-08-02T07:11:36.427Z,8.40
2022-08-02T07:13:40.075Z,6.57
2022-08-02T07:15:49.248Z,7.17
2022-08-02T07:17:52.983Z,11.40
2022-08-02T07:19:56.789Z,10.63
2022-08-02T07:22:01.798Z,6.83
2022-08-02T07:24:07.333Z,7.60
2022-08-02T07:26:10.929Z,6.37
2022-08-02T07:28:24.119Z,5.53
2022-08-02T07:30:28.161Z,7.90
2022-08-02T07:32:33.121Z,5.50
2022-08-02T07:34:36.571Z,5.43
2022-08-02T07:36:40.036Z,6.10
2022-08-02T07:38:43.815Z,7.13
2022-08-02T07:40:50.446Z,5.80
2022-08-02T07:43:00.940Z,6.83
2022-08-02T07:45:07.961Z,5.97
2022-08-02T07:47:11.589Z,7.03
2022-08-02T07:49:18.669Z,8.30
2022-08-02T07:51:22.309Z,6.00
2022-08-02T07:53:50.102Z,6.17
2022-08-02T07:55:51.246Z,5.73
2022-08-02T07:57:55.072Z,4.60
2022-08-02T07:59:58.468Z,4.80
2022-08-02T08:02:02.036Z,5.80
2022-08-02T08:04:05.763Z,5.33
2022-08-02T08:06:09.339Z,8.50
2022-08-02T08:08:17.310Z,4.97
2022-08-02T08:10:21.230Z,8.03
2022-08-02T08:12:26.012Z,3.93
2022-08-02T08:14:29.436Z,4.53
2022-08-02T08:16:32.976Z,4.80
2022-08-02T08:18:36.784Z,7.83
2022-08-02T08:20:40.234Z,4.77
2022-08-02T08:22:43.774Z,4.87
2022-08-02T08:24:48.389Z,5.10
2022-08-02T08:26:52.072Z,5.07
2022-08-02T08:28:56.899Z,4.43
2022-08-02T08:31:00.493Z,4.87
2022-08-02T08:33:04.481Z,4.87
2022-08-02T08:35:08.687Z,3.30
2022-08-02T08:37:18.277Z,3.93
2022-08-02T08:39:22.286Z,3.47
2022-08-02T08:41:25.877Z,4.40
2022-08-02T08:43:33.635Z,5.93
2022-08-02T08:45:38.811Z,9.90
2022-08-02T08:47:43.673Z,5.40
2022-08-02T08:49:52.757Z,6.60
2022-08-02T08:51:57.802Z,5.03
2022-08-02T08:54:04.725Z,5.57
2022-08-02T08:56:11.741Z,6.20
2022-08-02T08:58:17.615Z,4.00
2022-08-02T09:00:21.108Z,4.90
2022-08-02T09:02:28.429Z,7.17
2022-08-02T09:04:32.438Z,8.67
2022-08-02T09:06:35.867Z,4.70
2022-08-02T09:08:39.274Z,3.80
2022-08-02T09:10:44.190Z,3.70
2022-08-02T09:12:49.708Z,4.43
2022-08-02T09:14:53.305Z,3.80
2022-08-02T09:17:08.986Z,3.80
2022-08-02T09:19:21.284Z,4.50
2022-08-02T09:21:24.950Z,4.70
2022-08-02T09:23:35.499Z,4.40
2022-08-02T09:25:39.321Z,3.97
2022-08-02T09:28:04.456Z,3.90
2022-08-02T09:30:14.367Z,4.90
2022-08-02T09:32:19.005Z,4.73
2022-08-02T09:34:23.952Z,3.33
2022-08-02T09:36:29.344Z,5.27
2022-08-02T09:38:33.578Z,3.10
2022-08-02T09:40:37.705Z,3.37
2022-08-02T09:42:59.863Z,4.10
2022-08-02T09:45:03.820Z,3.30
2022-08-02T09:47:16.574Z,3.83
2022-08-02T09:49:21.057Z,4.00
2022-08-02T09:51:28.511Z,3.57
2022-08-02T09:53:32.240Z,4.20
2022-08-02T09:55:36.270Z,3.40
2022-08-02T09:57:39.818Z,4.90
2022-08-02T09:59:54.260Z,3.53
2022-08-02T10:02:17.439Z,3.63
2022-08-02T10:04:24.786Z,3.13
2022-08-02T10:06:31.146Z,3.90
2022-08-02T10:08:35.170Z,9.13
2022-08-02T10:10:39.161Z,5.00
2022-08-02T10:12:42.710Z,3.37
2022-08-02T10:14:46.901Z,3.23
2022-08-02T10:16:50.659Z,4.50
2022-08-02T10:18:55.425Z,4.60
2022-08-02T10:21:02.714Z,3.10
2022-08-02T10:23:08.478Z,2.87
2022-08-02T10:25:12.597Z,3.17
2022-08-02T10:27:19.915Z,4.43
2022-08-02T10:29:31.289Z,3.20
2022-08-02T10:32:04.913Z,3.83
2022-08-02T10:34:12.107Z,2.97
2022-08-02T10:36:16.238Z,2.90
2022-08-02T10:38:21.978Z,5.60
2022-08-02T10:40:26.834Z,2.57
2022-08-02T10:42:46.783Z,4.23
2022-08-02T10:45:09.405Z,2.77
2022-08-02T10:47:24.906Z,3.13
2022-08-02T10:49:39.616Z,2.60
2022-08-02T10:52:06.744Z,2.57
2022-08-02T10:54:11.666Z,5.63
2022-08-02T10:56:15.171Z,4.00
2022-08-02T10:58:19.641Z,3.67
2022-08-02T11:00:28.690Z,3.50
2022-08-02T11:02:41.971Z,2.30
2022-08-02T11:05:10.633Z,3.00
2022-08-02T11:07:16.965Z,3.53
2022-08-02T11:09:32.718Z,3.40
2022-08-02T11:12:04.283Z,3.33
2022-08-02T11:14:08.846Z,3.40
2022-08-02T11:16:12.336Z,3.50
2022-08-02T11:18:15.950Z,2.30
2022-08-02T11:20:20.950Z,2.47
2022-08-02T11:22:25.967Z,2.50
2022-08-02T11:24:32.913Z,2.70
2022-08-02T11:26:46.561Z,2.50
2022-08-02T11:28:50.894Z,2.93
2022-08-02T11:30:58.843Z,3.57
2022-08-02T11:33:02.489Z,2.93
2022-08-02T11:35:07.011Z,2.70
2022-08-02T11:37:10.506Z,3.27
2022-08-02T11:39:15.823Z,2.37
2022-08-02T11:41:46.156Z,3.23
2022-08-02T11:43:45.527Z,4.70
2022-08-02T11:45:50.888Z,2.53
2022-08-02T11:47:55.622Z,2.67
2022-08-02T11:50:06.437Z,3.30
2022-08-02T11:52:13.260Z,4.03
2022-08-02T11:54:24.033Z,2.57
2022-08-02T11:56:30.133Z,3.67
2022-08-02T11:58:33.821Z,2.77
2022-08-02T12:00:41.074Z,2.63
2022-08-02T12:02:48.203Z,3.20
2022-08-02T12:04:57.939Z,3.80
2022-08-02T12:07:03.051Z,2.70
2022-08-02T12:09:17.830Z,2.50
2022-08-02T12:11:22.130Z,2.87
2022-08-02T12:13:27.081Z,2.40
2022-08-02T12:15:35.191Z,2.97
2022-08-02T12:17:56.247Z,2.73
2022-08-02T12:19:59.716Z,2.57
2022-08-02T12:22:26.611Z,2.17
2022-08-02T12:24:31.062Z,3.53
2022-08-02T12:26:43.303Z,4.00
2022-08-02T12:28:48.401Z,2.10
2022-08-02T12:30:53.892Z,2.50
2022-08-02T12:33:12.714Z,3.80
2022-08-02T12:35:26.715Z,2.50
2022-08-02T12:37:30.716Z,2.73
2022-08-02T12:39:39.713Z,2.70
2022-08-02T12:41:55.226Z,2.20
2022-08-02T12:44:01.099Z,3.17
2022-08-02T12:46:04.568Z,2.20
2022-08-02T12:48:08.257Z,2.27
2022-08-02T12:50:12.640Z,2.00
2022-08-02T12:52:23.571Z,2.47
2022-08-02T12:54:31.330Z,2.73
2022-08-02T12:56:39.424Z,2.27
2022-08-02T12:58:49.958Z,2.83
2022-08-02T13:00:56.769Z,2.53
2022-08-02T13:03:00.867Z,2.60
2022-08-02T13:05:04.745Z,2.50
2022-08-02T13:07:08.645Z,2.43
2022-08-02T13:09:17.213Z,2.93
2022-08-02T13:11:21.202Z,2.60
2022-08-02T13:13:24.588Z,2.53
2022-08-02T13:15:49.578Z,2.10
2022-08-02T13:17:52.820Z,2.23
2022-08-02T13:19:56.263Z,2.87
2022-08-02T13:22:03.566Z,2.43
2022-08-02T13:24:37.659Z,3.23
2022-08-02T13:26:31.693Z,3.10
2022-08-02T13:28:35.914Z,2.57
2022-08-02T13:30:40.231Z,1.97
2022-08-02T13:32:43.886Z,4.10
2022-08-02T13:34:49.386Z,2.80
2022-08-02T13:36:52.867Z,2.50
2022-08-02T13:38:56.391Z,3.43
2022-08-02T13:41:13.563Z,3.00
2022-08-02T13:43:17.079Z,2.60
2022-08-02T13:45:20.506Z,2.13
2022-08-02T13:47:36.420Z,2.30
2022-08-02T13:49:52.127Z,2.13
2022-08-02T13:51:56.821Z,2.30
2022-08-02T13:54:00.333Z,1.93
2022-08-02T13:56:03.851Z,2.37
2022-08-02T13:58:07.348Z,2.27
2022-08-02T14:00:12.581Z,2.43
2022-08-02T14:02:18.080Z,2.50
2022-08-02T14:04:22.163Z,2.50
2022-08-02T14:06:27.469Z,2.07
2022-08-02T14:08:30.965Z,4.50
2022-08-02T14:10:34.557Z,3.23
2022-08-02T14:12:38.070Z,2.73
2022-08-02T14:14:41.530Z,2.37
2022-08-02T14:16:45.131Z,3.67
2022-08-02T14:18:48.601Z,2.50
2022-08-02T14:20:52.520Z,2.07
2022-08-02T14:22:57.384Z,2.70
2022-08-02T14:25:09.415Z,2.53
2022-08-02T14:27:13.513Z,2.37
2022-08-02T14:29:18.572Z,2.17
2022-08-02T14:31:22.021Z,2.53
2022-08-02T14:33:27.333Z,5.10
2022-08-02T14:35:31.620Z,2.30
2022-08-02T14:37:35.144Z,2.47
2022-08-02T14:39:43.090Z,3.23
2022-08-02T14:42:03.523Z,3.80
2022-08-02T14:44:07.932Z,2.40
2022-08-02T14:46:11.422Z,2.30
2022-08-02T14:48:14.942Z,2.00
2022-08-02T14:50:19.127Z,2.27
2022-08-02T14:52:22.595Z,2.40
2022-08-02T14:54:30.982Z,1.93
2022-08-02T14:56:36.198Z,2.53
2022-08-02T14:58:39.671Z,2.40
2022-08-02T15:00:44.041Z,2.50
2022-08-02T15:02:47.517Z,2.97
2022-08-02T15:04:50.931Z,2.73
2022-08-02T15:06:55.223Z,2.20
2022-08-02T15:08:59.063Z,1.93
2022-08-02T15:11:02.545Z,2.30
2022-08-02T15:13:07.544Z,2.63
2022-08-02T15:15:11.135Z,2.00
2022-08-02T15:17:14.521Z,2.73
2022-08-02T15:19:18.061Z,2.50
2022-08-02T15:21:41.444Z,2.60
2022-08-02T15:23:46.772Z,2.60
2022-08-02T15:25:50.154Z,3.10
2022-08-02T15:27:54.556Z,2.50
2022-08-02T15:30:01.099Z,2.23
2022-08-02T15:32:04.801Z,3.97
2022-08-02T15:34:08.321Z,2.40
2022-08-02T15:36:12.374Z,2.13
2022-08-02T15:38:15.920Z,3.80
2022-08-02T15:40:19.406Z,3.00
2022-08-02T15:42:30.851Z,2.60
2022-08-02T15:44:34.490Z,2.37
2022-08-02T15:46:39.457Z,2.30
2022-08-02T15:48:43.030Z,3.77
2022-08-02T15:50:46.797Z,2.63
2022-08-02T15:52:50.265Z,3.37
2022-08-02T15:54:53.722Z,2.57
2022-08-02T15:56:57.299Z,3.50
2022-08-02T15:59:00.713Z,3.53
2022-08-02T16:01:04.277Z,2.77
2022-08-02T16:03:09.161Z,2.57
2022-08-02T16:05:13.856Z,2.47
2022-08-02T16:07:17.780Z,2.20
2022-08-02T16:09:21.213Z,2.83
2022-08-02T16:11:24.727Z,2.63
2022-08-02T16:13:52.885Z,2.50
2022-08-02T16:15:58.579Z,2.43
2022-08-02T16:18:02.041Z,4.47
2022-08-02T16:20:07.697Z,3.20
2022-08-02T16:22:11.727Z,6.57
2022-08-02T16:24:15.398Z,2.70
2022-08-02T16:26:18.889Z,2.50
2022-08-02T16:28:22.455Z,3.00
2022-08-02T16:30:26.147Z,3.70
2022-08-02T16:32:31.786Z,4.13
2022-08-02T16:34:56.619Z,3.43
2022-08-02T16:37:00.360Z,2.27
2022-08-02T16:39:03.935Z,2.60
2022-08-02T16:41:07.843Z,2.30
2022-08-02T16:43:11.264Z,3.30
2022-08-02T16:45:14.697Z,2.27
2022-08-02T16:47:18.886Z,3.60
2022-08-02T16:50:06.519Z,1.90
2022-08-02T16:51:47.322Z,2.40
2022-08-02T16:54:00.191Z,3.50
2022-08-02T16:56:05.051Z,2.77
2022-08-02T16:58:09.726Z,3.57
2022-08-02T17:00:15.546Z,2.07
2022-08-02T17:02:19.948Z,2.33
2022-08-02T17:04:29.091Z,1.80
2022-08-02T17:06:33.129Z,3.33
2022-08-02T17:08:36.568Z,1.97
2022-08-02T17:10:58.786Z,2.03
2022-08-02T17:13:11.310Z,2.10
2022-08-02T17:16:01.361Z,3.77
2022-08-02T17:17:43.160Z,4.13
2022-08-02T17:19:46.772Z,2.23
2022-08-02T17:21:51.503Z,2.40
2022-08-02T17:24:08.143Z,2.43
2022-08-02T17:26:13.714Z,2.30
2022-08-02T17:28:17.361Z,2.37
2022-08-02T17:30:27.039Z,2.40
2022-08-02T17:32:30.639Z,2.23
2022-08-02T17:34:35.153Z,2.60
2022-08-02T17:36:38.659Z,2.00
2022-08-02T17:38:50.136Z,1.93
2022-08-02T17:40:55.853Z,10.03
2022-08-02T17:43:00.710Z,3.90
2022-08-02T17:45:16.306Z,3.60
2022-08-02T17:47:21.909Z,2.73
2022-08-02T17:49:25.747Z,3.03
2022-08-02T17:52:15.860Z,2.57
2022-08-02T17:53:52.799Z,2.30
2022-08-02T17:55:59.775Z,2.03
2022-08-02T17:58:04.732Z,3.70
2022-08-02T18:00:09.825Z,2.57
2022-08-02T18:02:16.085Z,3.30
2022-08-02T18:04:19.910Z,4.40
2022-08-02T18:06:31.283Z,2.83
2022-08-02T18:08:36.748Z,2.70
2022-08-02T18:10:41.406Z,2.87
2022-08-02T18:12:45.933Z,3.43
2022-08-02T18:14:52.400Z,3.17
2022-08-02T18:16:55.822Z,3.33
2022-08-02T18:19:04.371Z,1.77
2022-08-02T18:21:16.233Z,2.03
2022-08-02T18:23:26.328Z,1.90
2022-08-02T18:25:36.558Z,2.47
2022-08-02T18:27:47.109Z,6.00
2022-08-02T18:30:04.135Z,3.67
2022-08-02T18:32:11.419Z,3.27
2022-08-02T18:34:15.731Z,3.83
2022-08-02T18:36:24.596Z,2.40
2022-08-02T18:38:30.287Z,3.30
2022-08-02T18:40:33.843Z,2.83
2022-08-02T18:42:37.296Z,2.00
2022-08-02T18:44:43.052Z,2.40
2022-08-02T18:46:49.534Z,3.10
2022-08-02T18:48:53.208Z,3.33
2022-08-02T18:50:59.740Z,2.63
2022-08-02T18:53:03.602Z,3.60
2022-08-02T18:55:17.056Z,2.67
2022-08-02T18:58:01.814Z,2.63
2022-08-02T18:59:44.202Z,1.97
2022-08-02T19:01:56.181Z,2.20
2022-08-02T19:04:00.261Z,2.30
2022-08-02T19:06:04.342Z,1.87
2022-08-02T19:08:10.224Z,2.83
2022-08-02T19:10:14.412Z,1.77
2022-08-02T19:12:18.047Z,2.50
2022-08-02T19:14:31.938Z,2.43
2022-08-02T19:16:37.666Z,2.13
2022-08-02T19:18:43.142Z,2.17
2022-08-02T19:20:50.334Z,3.07
2022-08-02T19:22:54.020Z,2.00
2022-08-02T19:25:01.109Z,1.97
2022-08-02T19:27:13.401Z,2.37
2022-08-02T19:29:42.708Z,2.00
2022-08-02T19:32:02.203Z,2.70
2022-08-02T19:34:08.067Z,3.10
2022-08-02T19:36:11.949Z,2.07
2022-08-02T19:38:15.654Z,2.27
2022-08-02T19:40:23.727Z,3.67
2022-08-02T19:42:28.156Z,2.17
2022-08-02T19:44:31.609Z,1.83
2022-08-02T19:46:35.045Z,2.30
2022-08-02T19:48:39.103Z,2.70
2022-08-02T19:50:49.023Z,2.50
2022-08-02T19:52:52.975Z,3.00
2022-08-02T19:54:58.670Z,1.90
2022-08-02T19:57:05.720Z,1.93
2022-08-02T19:59:12.887Z,3.20
2022-08-02T20:01:20.673Z,5.03
2022-08-02T20:03:52.039Z,3.50
2022-08-02T20:05:51.985Z,10.53
2022-08-02T20:08:52.878Z,7.23
2022-08-02T20:11:36.005Z,4.70
2022-08-02T20:13:59.362Z,3.60
2022-08-02T20:16:04.778Z,3.50
2022-08-02T20:18:08.300Z,3.10
2022-08-02T20:20:12.510Z,3.50
2022-08-02T20:22:18.154Z,3.33
2022-08-02T20:24:22.354Z,3.30
2022-08-02T20:26:30.442Z,2.73
2022-08-02T20:28:34.987Z,3.30
2022-08-02T20:30:39.468Z,2.73
2022-08-02T20:32:42.996Z,2.60
2022-08-02T20:34:56.243Z,2.50
2022-08-02T20:37:00.706Z,2.17
2022-08-02T20:39:42.531Z,3.23
2022-08-02T20:42:36.025Z,2.40
2022-08-02T20:44:39.478Z,2.93
2022-08-02T20:46:42.933Z,2.80
2022-08-02T20:48:46.616Z,2.40
2022-08-02T20:50:56.701Z,2.60
2022-08-02T20:53:01.439Z,4.37
2022-08-02T20:55:07.335Z,2.73
2022-08-02T20:57:10.719Z,2.73
2022-08-02T20:59:15.624Z,2.43
2022-08-02T21:01:21.191Z,2.60
2022-08-02T21:03:24.972Z,2.70
2022-08-02T21:05:54.754Z,2.30
2022-08-02T21:08:02.126Z,3.30
2022-08-02T21:10:08.352Z,1.97
2022-08-02T21:12:18.186Z,2.77
2022-08-02T21:14:25.502Z,2.20
2022-08-02T21:16:28.956Z,2.73
2022-08-02T21:18:40.376Z,2.00
2022-08-02T21:20:45.420Z,2.20
2022-08-02T21:22:48.900Z,2.50
2022-08-02T21:24:52.599Z,2.60
2022-08-02T21:26:57.328Z,2.40
2022-08-02T21:29:03.189Z,2.57
2022-08-02T21:31:07.723Z,2.67
2022-08-02T21:33:23.292Z,2.57
2022-08-02T21:35:27.981Z,2.17
2022-08-02T21:37:32.978Z,3.50
2022-08-02T21:39:36.745Z,2.47
2022-08-02T21:41:46.943Z,2.57
2022-08-02T21:43:52.041Z,3.57
2022-08-02T21:45:57.654Z,1.90
2022-08-02T21:48:01.240Z,2.27
2022-08-02T21:50:10.537Z,2.00
2022-08-02T21:52:19.596Z,2.33
2022-08-02T21:54:23.294Z,2.00
2022-08-02T21:56:27.567Z,2.40
2022-08-02T21:58:31.013Z,2.10
2022-08-02T22:00:37.233Z,3.10
2022-08-02T22:02:40.803Z,2.33
2022-08-02T22:04:48.045Z,2.40
2022-08-02T22:06:51.717Z,2.83
2022-08-02T22:08:55.197Z,2.43
2022-08-02T22:11:04.420Z,2.63
2022-08-02T22:13:20.624Z,2.50
2022-08-02T22:15:25.773Z,2.40
2022-08-02T22:17:53.475Z,5.13
2022-08-02T22:20:03.573Z,2.93
2022-08-02T22:22:07.054Z,3.13
2022-08-02T22:24:12.922Z,2.90
2022-08-02T22:26:22.708Z,3.20
2022-08-02T22:28:38.855Z,3.10
2022-08-02T22:30:44.251Z,3.77
2022-08-02T22:33:14.848Z,4.00
2022-08-02T22:35:18.861Z,4.73
2022-08-02T22:38:17.012Z,3.20
2022-08-02T22:40:09.343Z,4.63
2022-08-02T22:42:09.146Z,2.97
2022-08-02T22:44:12.848Z,3.90
2022-08-02T22:46:18.586Z,3.13
2022-08-02T22:48:23.504Z,2.77
2022-08-02T22:50:28.275Z,2.60
2022-08-02T22:52:31.835Z,2.97
2022-08-02T22:54:35.335Z,3.47
2022-08-02T22:56:38.832Z,3.23
2022-08-02T23:01:12.240Z,2.73
2022-08-02T23:03:15.808Z,3.67
2022-08-02T23:05:21.563Z,3.13
2022-08-02T23:07:24.982Z,4.90
2022-08-02T23:09:28.760Z,3.50
2022-08-02T23:11:32.216Z,3.37
2022-08-02T23:13:35.716Z,3.73
2022-08-02T23:15:53.752Z,3.53
2022-08-02T23:18:14.683Z,2.43
2022-08-02T23:20:23.232Z,3.03
2022-08-02T23:22:29.470Z,2.70
2022-08-02T23:24:35.626Z,4.07
2022-08-02T23:26:38.990Z,3.77
2022-08-02T23:28:42.384Z,4.10
2022-08-02T23:30:45.796Z,3.87
2022-08-02T23:32:49.274Z,3.30
2022-08-02T23:34:53.073Z,3.40
2022-08-02T23:36:57.895Z,3.23
2022-08-02T23:39:01.382Z,6.90
2022-08-02T23:41:04.990Z,5.17
2022-08-02T23:43:13.269Z,5.27
2022-08-02T23:45:18.695Z,5.03
2022-08-02T23:47:23.107Z,4.23
2022-08-02T23:49:27.280Z,3.87
2022-08-02T23:51:30.920Z,3.80
2022-08-02T23:53:35.956Z,4.00
2022-08-02T23:55:41.869Z,3.87
2022-08-02T23:57:45.252Z,4.13
2022-08-02T23:59:48.717Z,5.73
